sensor_id;sensor_type;location;lat;lon;timestamp;pressure;altitude;pressure_sealevel;temperature;humidity
47522;BME280;32291;52.010;4.446;2023-09-18T00:00:34;76956.09;;;-144.67;100.00
47522;BME280;32291;52.010;4.446;2023-09-18T00:01:41;76953.97;;;-144.67;100.00
47522;BME280;32291;52.010;4.446;2023-09-18T00:02:43;76949.69;;;-144.67;100.00
47522;BME280;32291;52.010;4.446;2023-09-18T00:03:45;76951.81;;;-144.67;100.00
47522;BME280;32291;52.010;4.446;2023-09-18T00:04:53;76951.81;;;-144.67;100.00
47522;BME280;32291;52.010;4.446;2023-09-18T00:05:55;76949.69;;;-144.67;100.00
47522;BME280;32291;52.010;4.446;2023-09-18T00:06:57;76951.81;;;-144.67;100.00
47522;BME280;32291;52.010;4.446;2023-09-18T00:07:59;76945.41;;;-144.67;100.00
47522;BME280;32291;52.010;4.446;2023-09-18T00:09:01;76943.25;;;-144.67;100.00
47522;BME280;32291;52.010;4.446;2023-09-18T00:10:03;76943.25;;;-144.67;100.00
47522;BME280;32291;52.010;4.446;2023-09-18T00:11:10;76943.25;;;-144.67;100.00
47522;BME280;32291;52.010;4.446;2023-09-18T00:12:13;76938.97;;;-144.67;100.00
47522;BME280;32291;52.010;4.446;2023-09-18T00:13:22;76934.69;;;-144.67;100.00
47522;BME280;32291;52.010;4.446;2023-09-18T00:14:31;76938.97;;;-144.67;100.00
47522;BME280;32291;52.010;4.446;2023-09-18T00:15:38;76938.97;;;-144.67;100.00
47522;BME280;32291;52.010;4.446;2023-09-18T00:16:47;76930.41;;;-144.67;100.00
47522;BME280;32291;52.010;4.446;2023-09-18T00:17:50;76926.13;;;-144.67;100.00
47522;BME280;32291;52.010;4.446;2023-09-18T00:18:57;76932.56;;;-144.67;100.00
47522;BME280;32291;52.010;4.446;2023-09-18T00:20:10;76930.41;;;-144.67;100.00
47522;BME280;32291;52.010;4.446;2023-09-18T00:21:17;76921.84;;;-144.67;100.00
47522;BME280;32291;52.010;4.446;2023-09-18T00:22:24;76919.72;;;-144.67;100.00
47522;BME280;32291;52.010;4.446;2023-09-18T00:23:26;76919.72;;;-144.67;100.00
47522;BME280;32291;52.010;4.446;2023-09-18T00:24:28;76924.00;;;-144.67;100.00
47522;BME280;32291;52.010;4.446;2023-09-18T00:25:36;76919.72;;;-144.67;100.00
47522;BME280;32291;52.010;4.446;2023-09-18T00:26:44;76909.00;;;-144.67;100.00
47522;BME280;32291;52.010;4.446;2023-09-18T00:27:49;76904.75;;;-144.67;100.00
47522;BME280;32291;52.010;4.446;2023-09-18T00:28:56;76904.75;;;-144.67;100.00
47522;BME280;32291;52.010;4.446;2023-09-18T00:30:04;76904.75;;;-144.67;100.00
47522;BME280;32291;52.010;4.446;2023-09-18T00:31:07;76896.19;;;-144.67;100.00
47522;BME280;32291;52.010;4.446;2023-09-18T00:32:16;76900.47;;;-144.67;100.00
47522;BME280;32291;52.010;4.446;2023-09-18T00:33:20;76896.19;;;-144.67;100.00
47522;BME280;32291;52.010;4.446;2023-09-18T00:34:24;76891.91;;;-144.67;100.00
47522;BME280;32291;52.010;4.446;2023-09-18T00:35:26;76887.63;;;-144.67;100.00
47522;BME280;32291;52.010;4.446;2023-09-18T00:36:30;76883.34;;;-144.67;100.00
47522;BME280;32291;52.010;4.446;2023-09-18T00:37:40;76887.63;;;-144.67;100.00
47522;BME280;32291;52.010;4.446;2023-09-18T00:38:42;76885.47;;;-144.67;100.00
47522;BME280;32291;52.010;4.446;2023-09-18T00:39:45;76883.34;;;-144.67;100.00
47522;BME280;32291;52.010;4.446;2023-09-18T00:40:47;76874.78;;;-144.67;100.00
47522;BME280;32291;52.010;4.446;2023-09-18T00:41:54;76870.50;;;-144.67;100.00
47522;BME280;32291;52.010;4.446;2023-09-18T00:43:01;76870.50;;;-144.67;100.00
47522;BME280;32291;52.010;4.446;2023-09-18T00:44:04;76868.34;;;-144.67;100.00
47522;BME280;32291;52.010;4.446;2023-09-18T00:45:08;76870.50;;;-144.67;100.00
47522;BME280;32291;52.010;4.446;2023-09-18T00:46:16;76868.34;;;-144.67;100.00
47522;BME280;32291;52.010;4.446;2023-09-18T00:47:23;76861.94;;;-144.67;100.00
47522;BME280;32291;52.010;4.446;2023-09-18T00:48:30;76857.66;;;-144.67;100.00
47522;BME280;32291;52.010;4.446;2023-09-18T00:49:33;76857.66;;;-144.67;100.00
47522;BME280;32291;52.010;4.446;2023-09-18T00:50:37;76853.38;;;-144.67;100.00
47522;BME280;32291;52.010;4.446;2023-09-18T00:51:40;76844.81;;;-144.67;100.00
47522;BME280;32291;52.010;4.446;2023-09-18T00:52:43;76849.09;;;-144.67;100.00
47522;BME280;32291;52.010;4.446;2023-09-18T00:53:47;76840.53;;;-144.67;100.00
47522;BME280;32291;52.010;4.446;2023-09-18T00:54:52;76840.53;;;-144.67;100.00
47522;BME280;32291;52.010;4.446;2023-09-18T00:56:00;76836.25;;;-144.67;100.00
47522;BME280;32291;52.010;4.446;2023-09-18T00:57:06;76823.41;;;-144.67;100.00
47522;BME280;32291;52.010;4.446;2023-09-18T00:58:13;76814.84;;;-144.67;100.00
47522;BME280;32291;52.010;4.446;2023-09-18T00:59:15;76817.00;;;-144.67;100.00
47522;BME280;32291;52.010;4.446;2023-09-18T01:00:18;76819.13;;;-144.67;100.00
47522;BME280;32291;52.010;4.446;2023-09-18T01:01:23;76827.69;;;-144.67;100.00
47522;BME280;32291;52.010;4.446;2023-09-18T01:02:25;76834.13;;;-144.67;100.00
47522;BME280;32291;52.010;4.446;2023-09-18T01:03:28;76829.84;;;-144.67;100.00
47522;BME280;32291;52.010;4.446;2023-09-18T01:04:33;76836.25;;;-144.67;100.00
47522;BME280;32291;52.010;4.446;2023-09-18T01:05:35;76838.41;;;-144.67;100.00
47522;BME280;32291;52.010;4.446;2023-09-18T01:06:43;76840.53;;;-144.67;100.00
47522;BME280;32291;52.010;4.446;2023-09-18T01:07:45;76840.53;;;-144.67;100.00
47522;BME280;32291;52.010;4.446;2023-09-18T01:08:48;76838.41;;;-144.67;100.00
47522;BME280;32291;52.010;4.446;2023-09-18T01:09:56;76834.13;;;-144.67;100.00
47522;BME280;32291;52.010;4.446;2023-09-18T01:11:16;76827.69;;;-144.67;100.00
47522;BME280;32291;52.010;4.446;2023-09-18T01:12:38;76819.13;;;-144.67;100.00
47522;BME280;32291;52.010;4.446;2023-09-18T01:15:42;76821.28;;;-144.67;100.00
47522;BME280;32291;52.010;4.446;2023-09-18T01:16:54;76823.41;;;-144.67;100.00
47522;BME280;32291;52.010;4.446;2023-09-18T01:18:00;76823.41;;;-144.67;100.00
47522;BME280;32291;52.010;4.446;2023-09-18T01:19:07;76827.69;;;-144.67;100.00
47522;BME280;32291;52.010;4.446;2023-09-18T01:20:12;76836.25;;;-144.67;100.00
47522;BME280;32291;52.010;4.446;2023-09-18T01:21:14;76834.13;;;-144.67;100.00
47522;BME280;32291;52.010;4.446;2023-09-18T01:22:21;76840.53;;;-144.67;100.00
47522;BME280;32291;52.010;4.446;2023-09-18T01:23:29;76831.97;;;-144.67;100.00
47522;BME280;32291;52.010;4.446;2023-09-18T01:24:38;76838.41;;;-144.67;100.00
47522;BME280;32291;52.010;4.446;2023-09-18T01:25:41;76838.41;;;-144.67;100.00
47522;BME280;32291;52.010;4.446;2023-09-18T01:26:43;76838.41;;;-144.67;100.00
47522;BME280;32291;52.010;4.446;2023-09-18T01:27:51;76836.25;;;-144.67;100.00
47522;BME280;32291;52.010;4.446;2023-09-18T01:28:53;76836.25;;;-144.67;100.00
47522;BME280;32291;52.010;4.446;2023-09-18T01:29:56;76834.13;;;-144.67;100.00
47522;BME280;32291;52.010;4.446;2023-09-18T01:31:05;76836.25;;;-144.67;100.00
47522;BME280;32291;52.010;4.446;2023-09-18T01:32:08;76831.97;;;-144.67;100.00
47522;BME280;32291;52.010;4.446;2023-09-18T01:33:11;76834.13;;;-144.67;100.00
47522;BME280;32291;52.010;4.446;2023-09-18T01:34:16;76836.25;;;-144.67;100.00
47522;BME280;32291;52.010;4.446;2023-09-18T01:35:19;76834.13;;;-144.67;100.00
47522;BME280;32291;52.010;4.446;2023-09-18T01:36:26;76827.69;;;-144.67;100.00
47522;BME280;32291;52.010;4.446;2023-09-18T01:37:31;76825.56;;;-144.67;100.00
47522;BME280;32291;52.010;4.446;2023-09-18T01:38:38;76823.41;;;-144.67;100.00
47522;BME280;32291;52.010;4.446;2023-09-18T01:39:42;76819.13;;;-144.67;100.00
47522;BME280;32291;52.010;4.446;2023-09-18T01:40:47;76817.00;;;-144.67;100.00
47522;BME280;32291;52.010;4.446;2023-09-18T01:41:54;76810.56;;;-144.67;100.00
47522;BME280;32291;52.010;4.446;2023-09-18T01:43:01;76810.56;;;-144.67;100.00
47522;BME280;32291;52.010;4.446;2023-09-18T01:44:08;76810.56;;;-144.67;100.00
47522;BME280;32291;52.010;4.446;2023-09-18T01:45:10;76812.72;;;-144.67;100.00
47522;BME280;32291;52.010;4.446;2023-09-18T01:46:18;76810.56;;;-144.67;100.00
47522;BME280;32291;52.010;4.446;2023-09-18T01:47:21;76810.56;;;-144.67;100.00
47522;BME280;32291;52.010;4.446;2023-09-18T01:48:31;76810.56;;;-144.67;100.00
47522;BME280;32291;52.010;4.446;2023-09-18T01:49:38;76808.44;;;-144.67;100.00
47522;BME280;32291;52.010;4.446;2023-09-18T01:50:45;76802.00;;;-144.67;100.00
47522;BME280;32291;52.010;4.446;2023-09-18T01:51:49;76808.44;;;-144.67;100.00
47522;BME280;32291;52.010;4.446;2023-09-18T01:52:54;76806.28;;;-144.67;100.00
47522;BME280;32291;52.010;4.446;2023-09-18T01:53:56;76806.28;;;-144.67;100.00
47522;BME280;32291;52.010;4.446;2023-09-18T01:54:59;76793.44;;;-144.67;100.00
47522;BME280;32291;52.010;4.446;2023-09-18T01:56:01;76799.88;;;-144.67;100.00
47522;BME280;32291;52.010;4.446;2023-09-18T01:57:08;76797.72;;;-144.67;100.00
47522;BME280;32291;52.010;4.446;2023-09-18T01:58:15;76799.88;;;-144.67;100.00
47522;BME280;32291;52.010;4.446;2023-09-18T01:59:22;76806.28;;;-144.67;100.00
47522;BME280;32291;52.010;4.446;2023-09-18T02:00:24;76795.59;;;-144.67;100.00
47522;BME280;32291;52.010;4.446;2023-09-18T02:01:27;76802.00;;;-144.67;100.00
47522;BME280;32291;52.010;4.446;2023-09-18T02:02:31;76804.16;;;-144.67;100.00
47522;BME280;32291;52.010;4.446;2023-09-18T02:03:38;76804.16;;;-144.67;100.00
47522;BME280;32291;52.010;4.446;2023-09-18T02:04:43;76806.28;;;-144.67;100.00
47522;BME280;32291;52.010;4.446;2023-09-18T02:05:51;76806.28;;;-144.67;100.00
47522;BME280;32291;52.010;4.446;2023-09-18T02:06:58;76810.56;;;-144.67;100.00
47522;BME280;32291;52.010;4.446;2023-09-18T02:08:00;76810.56;;;-144.67;100.00
47522;BME280;32291;52.010;4.446;2023-09-18T02:09:03;76810.56;;;-144.67;100.00
47522;BME280;32291;52.010;4.446;2023-09-18T02:10:19;76810.56;;;-144.67;100.00
47522;BME280;32291;52.010;4.446;2023-09-18T02:11:21;76804.16;;;-144.67;100.00
47522;BME280;32291;52.010;4.446;2023-09-18T02:12:28;76797.72;;;-144.67;100.00
47522;BME280;32291;52.010;4.446;2023-09-18T02:13:35;76797.72;;;-144.67;100.00
47522;BME280;32291;52.010;4.446;2023-09-18T02:14:37;76797.72;;;-144.67;100.00
47522;BME280;32291;52.010;4.446;2023-09-18T02:15:40;76793.44;;;-144.67;100.00
47522;BME280;32291;52.010;4.446;2023-09-18T02:16:43;76793.44;;;-144.67;100.00
47522;BME280;32291;52.010;4.446;2023-09-18T02:17:46;76793.44;;;-144.67;100.00
47522;BME280;32291;52.010;4.446;2023-09-18T02:18:55;76804.16;;;-144.67;100.00
47522;BME280;32291;52.010;4.446;2023-09-18T02:20:01;76802.00;;;-144.67;100.00
47522;BME280;32291;52.010;4.446;2023-09-18T02:21:11;76795.59;;;-144.67;100.00
47522;BME280;32291;52.010;4.446;2023-09-18T02:22:18;76795.59;;;-144.67;100.00
47522;BME280;32291;52.010;4.446;2023-09-18T02:23:25;76789.16;;;-144.67;100.00
47522;BME280;32291;52.010;4.446;2023-09-18T02:24:32;76791.31;;;-144.67;100.00
47522;BME280;32291;52.010;4.446;2023-09-18T02:25:38;76780.63;;;-144.67;100.00
47522;BME280;32291;52.010;4.446;2023-09-18T02:26:47;76776.34;;;-144.67;100.00
47522;BME280;32291;52.010;4.446;2023-09-18T02:27:53;76763.50;;;-144.67;100.00
47522;BME280;32291;52.010;4.446;2023-09-18T02:29:01;76754.94;;;-144.67;100.00
47522;BME280;32291;52.010;4.446;2023-09-18T02:30:08;76739.94;;;-144.67;100.00
47522;BME280;32291;52.010;4.446;2023-09-18T02:31:11;76739.94;;;-144.67;100.00
47522;BME280;32291;52.010;4.446;2023-09-18T02:32:18;76742.09;;;-144.67;100.00
47522;BME280;32291;52.010;4.446;2023-09-18T02:33:23;76742.09;;;-144.67;100.00
47522;BME280;32291;52.010;4.446;2023-09-18T02:34:30;76742.09;;;-144.67;100.00
47522;BME280;32291;52.010;4.446;2023-09-18T02:35:32;76742.09;;;-144.67;100.00
47522;BME280;32291;52.010;4.446;2023-09-18T02:36:42;76744.22;;;-144.67;100.00
47522;BME280;32291;52.010;4.446;2023-09-18T02:37:49;76742.09;;;-144.67;100.00
47522;BME280;32291;52.010;4.446;2023-09-18T02:38:58;76735.66;;;-144.67;100.00
47522;BME280;32291;52.010;4.446;2023-09-18T02:40:06;76737.81;;;-144.67;100.00
47522;BME280;32291;52.010;4.446;2023-09-18T02:41:12;76733.53;;;-144.67;100.00
47522;BME280;32291;52.010;4.446;2023-09-18T02:42:14;76729.25;;;-144.67;100.00
47522;BME280;32291;52.010;4.446;2023-09-18T02:43:21;76714.28;;;-144.67;100.00
47522;BME280;32291;52.010;4.446;2023-09-18T02:44:24;76712.13;;;-144.67;100.00
47522;BME280;32291;52.010;4.446;2023-09-18T02:45:31;76716.41;;;-144.67;100.00
47522;BME280;32291;52.010;4.446;2023-09-18T02:46:38;76712.13;;;-144.67;100.00
47522;BME280;32291;52.010;4.446;2023-09-18T02:47:43;76707.84;;;-144.67;100.00
47522;BME280;32291;52.010;4.446;2023-09-18T02:48:49;76703.56;;;-144.67;100.00
47522;BME280;32291;52.010;4.446;2023-09-18T02:49:56;76699.28;;;-144.67;100.00
47522;BME280;32291;52.010;4.446;2023-09-18T02:51:06;76697.16;;;-144.67;100.00
47522;BME280;32291;52.010;4.446;2023-09-18T02:52:13;76692.88;;;-144.67;100.00
47522;BME280;32291;52.010;4.446;2023-09-18T02:53:23;76686.44;;;-144.67;100.00
47522;BME280;32291;52.010;4.446;2023-09-18T02:54:30;76684.31;;;-144.67;100.00
47522;BME280;32291;52.010;4.446;2023-09-18T02:55:36;76682.16;;;-144.67;100.00
47522;BME280;32291;52.010;4.446;2023-09-18T02:56:39;76677.88;;;-144.67;100.00
47522;BME280;32291;52.010;4.446;2023-09-18T02:57:41;76680.03;;;-144.67;100.00
47522;BME280;32291;52.010;4.446;2023-09-18T02:58:47;76673.63;;;-144.67;100.00
47522;BME280;32291;52.010;4.446;2023-09-18T02:59:54;76673.63;;;-144.67;100.00
47522;BME280;32291;52.010;4.446;2023-09-18T03:00:57;76669.34;;;-144.67;100.00
47522;BME280;32291;52.010;4.446;2023-09-18T03:02:10;76671.47;;;-144.67;100.00
47522;BME280;32291;52.010;4.446;2023-09-18T03:03:14;76673.63;;;-144.67;100.00
47522;BME280;32291;52.010;4.446;2023-09-18T03:04:21;76677.88;;;-144.67;100.00
47522;BME280;32291;52.010;4.446;2023-09-18T03:05:23;76677.88;;;-144.67;100.00
47522;BME280;32291;52.010;4.446;2023-09-18T03:06:25;76684.31;;;-144.67;100.00
47522;BME280;32291;52.010;4.446;2023-09-18T03:07:30;76688.59;;;-144.67;100.00
47522;BME280;32291;52.010;4.446;2023-09-18T03:08:37;76690.72;;;-144.67;100.00
47522;BME280;32291;52.010;4.446;2023-09-18T03:09:39;76690.72;;;-144.67;100.00
47522;BME280;32291;52.010;4.446;2023-09-18T03:10:42;76695.00;;;-144.67;100.00
47522;BME280;32291;52.010;4.446;2023-09-18T03:11:44;76690.72;;;-144.67;100.00
47522;BME280;32291;52.010;4.446;2023-09-18T03:12:49;76690.72;;;-144.67;100.00
47522;BME280;32291;52.010;4.446;2023-09-18T03:13:51;76690.72;;;-144.67;100.00
47522;BME280;32291;52.010;4.446;2023-09-18T03:14:53;76682.16;;;-144.67;100.00
47522;BME280;32291;52.010;4.446;2023-09-18T03:16:00;76677.88;;;-144.67;100.00
47522;BME280;32291;52.010;4.446;2023-09-18T03:17:07;76677.88;;;-144.67;100.00
47522;BME280;32291;52.010;4.446;2023-09-18T03:18:14;76675.75;;;-144.67;100.00
47522;BME280;32291;52.010;4.446;2023-09-18T03:19:21;76677.88;;;-144.67;100.00
47522;BME280;32291;52.010;4.446;2023-09-18T03:20:31;76675.75;;;-144.67;100.00
47522;BME280;32291;52.010;4.446;2023-09-18T03:21:38;76686.44;;;-144.67;100.00
47522;BME280;32291;52.010;4.446;2023-09-18T03:22:41;76686.44;;;-144.67;100.00
47522;BME280;32291;52.010;4.446;2023-09-18T03:23:44;76699.28;;;-144.67;100.00
47522;BME280;32291;52.010;4.446;2023-09-18T03:24:51;76699.28;;;-144.67;100.00
47522;BME280;32291;52.010;4.446;2023-09-18T03:26:00;76703.56;;;-144.67;100.00
47522;BME280;32291;52.010;4.446;2023-09-18T03:27:07;76699.28;;;-144.67;100.00
47522;BME280;32291;52.010;4.446;2023-09-18T03:28:09;76690.72;;;-144.67;100.00
47522;BME280;32291;52.010;4.446;2023-09-18T03:29:16;76688.59;;;-144.67;100.00
47522;BME280;32291;52.010;4.446;2023-09-18T03:30:25;76682.16;;;-144.67;100.00
47522;BME280;32291;52.010;4.446;2023-09-18T03:31:31;76682.16;;;-144.67;100.00
47522;BME280;32291;52.010;4.446;2023-09-18T03:32:38;76682.16;;;-144.67;100.00
47522;BME280;32291;52.010;4.446;2023-09-18T03:35:54;76690.72;;;-144.67;100.00
47522;BME280;32291;52.010;4.446;2023-09-18T03:37:01;76677.88;;;-144.67;100.00
47522;BME280;32291;52.010;4.446;2023-09-18T03:38:03;76699.28;;;-144.67;100.00
47522;BME280;32291;52.010;4.446;2023-09-18T03:39:05;76699.28;;;-144.67;100.00
47522;BME280;32291;52.010;4.446;2023-09-18T03:40:13;76695.00;;;-144.67;100.00
47522;BME280;32291;52.010;4.446;2023-09-18T03:41:15;76682.16;;;-144.67;100.00
47522;BME280;32291;52.010;4.446;2023-09-18T03:42:17;76677.88;;;-144.67;100.00
47522;BME280;32291;52.010;4.446;2023-09-18T03:43:19;76684.31;;;-144.67;100.00
47522;BME280;32291;52.010;4.446;2023-09-18T03:44:22;76690.72;;;-144.67;100.00
47522;BME280;32291;52.010;4.446;2023-09-18T03:45:29;76686.44;;;-144.67;100.00
47522;BME280;32291;52.010;4.446;2023-09-18T03:46:31;76682.16;;;-144.67;100.00
47522;BME280;32291;52.010;4.446;2023-09-18T03:47:40;76675.75;;;-144.67;100.00
47522;BME280;32291;52.010;4.446;2023-09-18T03:48:47;76701.44;;;-144.67;100.00
47522;BME280;32291;52.010;4.446;2023-09-18T03:49:54;76697.16;;;-144.67;100.00
47522;BME280;32291;52.010;4.446;2023-09-18T03:51:02;76695.00;;;-144.67;100.00
47522;BME280;32291;52.010;4.446;2023-09-18T03:52:08;76677.88;;;-144.67;100.00
47522;BME280;32291;52.010;4.446;2023-09-18T03:53:11;76680.03;;;-144.67;100.00
47522;BME280;32291;52.010;4.446;2023-09-18T03:54:18;76682.16;;;-144.67;100.00
47522;BME280;32291;52.010;4.446;2023-09-18T03:55:25;76677.88;;;-144.67;100.00
47522;BME280;32291;52.010;4.446;2023-09-18T03:56:28;76669.34;;;-144.67;100.00
47522;BME280;32291;52.010;4.446;2023-09-18T03:57:35;76665.06;;;-144.67;100.00
47522;BME280;32291;52.010;4.446;2023-09-18T03:58:38;76665.06;;;-144.67;100.00
47522;BME280;32291;52.010;4.446;2023-09-18T03:59:45;76682.16;;;-144.67;100.00
47522;BME280;32291;52.010;4.446;2023-09-18T04:00:52;76686.44;;;-144.67;100.00
47522;BME280;32291;52.010;4.446;2023-09-18T04:01:54;76686.44;;;-144.67;100.00
47522;BME280;32291;52.010;4.446;2023-09-18T04:03:01;76690.72;;;-144.67;100.00
47522;BME280;32291;52.010;4.446;2023-09-18T04:04:08;76673.63;;;-144.67;100.00
47522;BME280;32291;52.010;4.446;2023-09-18T04:05:15;76656.50;;;-144.67;100.00
47522;BME280;32291;52.010;4.446;2023-09-18T04:06:22;76652.22;;;-144.67;100.00
47522;BME280;32291;52.010;4.446;2023-09-18T04:07:31;76645.78;;;-144.67;100.00
47522;BME280;32291;52.010;4.446;2023-09-18T04:08:33;76641.50;;;-144.67;100.00
47522;BME280;32291;52.010;4.446;2023-09-18T04:09:35;76639.38;;;-144.67;100.00
47522;BME280;32291;52.010;4.446;2023-09-18T04:10:37;76637.22;;;-144.67;100.00
47522;BME280;32291;52.010;4.446;2023-09-18T04:11:44;76639.38;;;-144.67;100.00
47522;BME280;32291;52.010;4.446;2023-09-18T04:12:46;76635.09;;;-144.67;100.00
47522;BME280;32291;52.010;4.446;2023-09-18T04:13:49;76635.09;;;-144.67;100.00
47522;BME280;32291;52.010;4.446;2023-09-18T04:14:51;76643.66;;;-144.67;100.00
47522;BME280;32291;52.010;4.446;2023-09-18T04:15:58;76632.94;;;-144.67;100.00
47522;BME280;32291;52.010;4.446;2023-09-18T04:17:02;76635.09;;;-144.67;100.00
47522;BME280;32291;52.010;4.446;2023-09-18T04:18:05;76635.09;;;-144.67;100.00
47522;BME280;32291;52.010;4.446;2023-09-18T04:19:07;76643.66;;;-144.67;100.00
47522;BME280;32291;52.010;4.446;2023-09-18T04:20:11;76641.50;;;-144.67;100.00
47522;BME280;32291;52.010;4.446;2023-09-18T04:21:20;76637.22;;;-144.67;100.00
47522;BME280;32291;52.010;4.446;2023-09-18T04:22:23;76630.81;;;-144.67;100.00
47522;BME280;32291;52.010;4.446;2023-09-18T04:23:27;76630.81;;;-144.67;100.00
47522;BME280;32291;52.010;4.446;2023-09-18T04:24:34;76628.66;;;-144.67;100.00
47522;BME280;32291;52.010;4.446;2023-09-18T04:25:41;76628.66;;;-144.67;100.00
47522;BME280;32291;52.010;4.446;2023-09-18T04:26:43;76637.22;;;-144.67;100.00
47522;BME280;32291;52.010;4.446;2023-09-18T04:27:45;76632.94;;;-144.67;100.00
47522;BME280;32291;52.010;4.446;2023-09-18T04:28:53;76647.94;;;-144.67;100.00
47522;BME280;32291;52.010;4.446;2023-09-18T04:29:55;76658.63;;;-144.67;100.00
47522;BME280;32291;52.010;4.446;2023-09-18T04:31:01;76639.38;;;-144.67;100.00
47522;BME280;32291;52.010;4.446;2023-09-18T04:32:04;76652.22;;;-144.67;100.00
47522;BME280;32291;52.010;4.446;2023-09-18T04:33:07;76652.22;;;-144.67;100.00
47522;BME280;32291;52.010;4.446;2023-09-18T04:34:14;76650.06;;;-144.67;100.00
47522;BME280;32291;52.010;4.446;2023-09-18T04:35:21;76639.38;;;-144.67;100.00
47522;BME280;32291;52.010;4.446;2023-09-18T04:36:27;76647.94;;;-144.67;100.00
47522;BME280;32291;52.010;4.446;2023-09-18T04:37:36;76652.22;;;-144.67;100.00
47522;BME280;32291;52.010;4.446;2023-09-18T04:38:44;76652.22;;;-144.67;100.00
47522;BME280;32291;52.010;4.446;2023-09-18T04:39:46;76656.50;;;-144.67;100.00
47522;BME280;32291;52.010;4.446;2023-09-18T04:40:48;76650.06;;;-144.67;100.00
47522;BME280;32291;52.010;4.446;2023-09-18T04:41:55;76650.06;;;-144.67;100.00
47522;BME280;32291;52.010;4.446;2023-09-18T04:43:02;76656.50;;;-144.67;100.00
47522;BME280;32291;52.010;4.446;2023-09-18T04:44:06;76656.50;;;-144.67;100.00
47522;BME280;32291;52.010;4.446;2023-09-18T04:45:13;76643.66;;;-144.67;100.00
47522;BME280;32291;52.010;4.446;2023-09-18T04:46:22;76639.38;;;-144.67;100.00
47522;BME280;32291;52.010;4.446;2023-09-18T04:47:26;76643.66;;;-144.67;100.00
47522;BME280;32291;52.010;4.446;2023-09-18T04:48:32;76647.94;;;-144.67;100.00
47522;BME280;32291;52.010;4.446;2023-09-18T04:49:42;76650.06;;;-144.67;100.00
47522;BME280;32291;52.010;4.446;2023-09-18T04:50:46;76645.78;;;-144.67;100.00
47522;BME280;32291;52.010;4.446;2023-09-18T04:51:48;76650.06;;;-144.67;100.00
47522;BME280;32291;52.010;4.446;2023-09-18T04:52:53;76652.22;;;-144.67;100.00
47522;BME280;32291;52.010;4.446;2023-09-18T04:54:00;76645.78;;;-144.67;100.00
47522;BME280;32291;52.010;4.446;2023-09-18T04:55:07;76643.66;;;-144.67;100.00
47522;BME280;32291;52.010;4.446;2023-09-18T04:56:14;76641.50;;;-144.67;100.00
47522;BME280;32291;52.010;4.446;2023-09-18T04:57:16;76643.66;;;-144.67;100.00
47522;BME280;32291;52.010;4.446;2023-09-18T04:58:19;76635.09;;;-144.67;100.00
47522;BME280;32291;52.010;4.446;2023-09-18T04:59:24;76630.81;;;-144.67;100.00
47522;BME280;32291;52.010;4.446;2023-09-18T05:00:26;76624.41;;;-144.67;100.00
47522;BME280;32291;52.010;4.446;2023-09-18T05:01:30;76613.69;;;-144.67;100.00
47522;BME280;32291;52.010;4.446;2023-09-18T05:02:33;76622.25;;;-144.67;100.00
47522;BME280;32291;52.010;4.446;2023-09-18T05:03:36;76620.13;;;-144.67;100.00
47522;BME280;32291;52.010;4.446;2023-09-18T05:04:38;76622.25;;;-144.67;100.00
47522;BME280;32291;52.010;4.446;2023-09-18T05:05:40;76626.53;;;-144.67;100.00
47522;BME280;32291;52.010;4.446;2023-09-18T05:06:48;76622.25;;;-144.67;100.00
47522;BME280;32291;52.010;4.446;2023-09-18T05:07:50;76617.97;;;-144.67;100.00
47522;BME280;32291;52.010;4.446;2023-09-18T05:08:55;76620.13;;;-144.67;100.00
47522;BME280;32291;52.010;4.446;2023-09-18T05:09:59;76613.69;;;-144.67;100.00
47522;BME280;32291;52.010;4.446;2023-09-18T05:11:06;76613.69;;;-144.67;100.00
47522;BME280;32291;52.010;4.446;2023-09-18T05:12:13;76613.69;;;-144.67;100.00
47522;BME280;32291;52.010;4.446;2023-09-18T05:13:18;76613.69;;;-144.67;100.00
47522;BME280;32291;52.010;4.446;2023-09-18T05:14:22;76615.84;;;-144.67;100.00
47522;BME280;32291;52.010;4.446;2023-09-18T05:15:25;76615.84;;;-144.67;100.00
47522;BME280;32291;52.010;4.446;2023-09-18T05:16:30;76613.69;;;-144.67;100.00
47522;BME280;32291;52.010;4.446;2023-09-18T05:17:47;76611.56;;;-144.67;100.00
47522;BME280;32291;52.010;4.446;2023-09-18T05:18:49;76613.69;;;-144.67;100.00
47522;BME280;32291;52.010;4.446;2023-09-18T05:19:56;76607.28;;;-144.67;100.00
47522;BME280;32291;52.010;4.446;2023-09-18T05:20:58;76605.13;;;-144.67;100.00
47522;BME280;32291;52.010;4.446;2023-09-18T05:22:01;76600.84;;;-144.67;100.00
47522;BME280;32291;52.010;4.446;2023-09-18T05:23:03;76600.84;;;-144.67;100.00
47522;BME280;32291;52.010;4.446;2023-09-18T05:24:05;76607.28;;;-144.67;100.00
47522;BME280;32291;52.010;4.446;2023-09-18T05:25:13;76596.56;;;-144.67;100.00
47522;BME280;32291;52.010;4.446;2023-09-18T05:26:21;76603.00;;;-144.67;100.00
47522;BME280;32291;52.010;4.446;2023-09-18T05:27:31;76592.28;;;-144.67;100.00
47522;BME280;32291;52.010;4.446;2023-09-18T05:28:33;76590.16;;;-144.67;100.00
47522;BME280;32291;52.010;4.446;2023-09-18T05:29:35;76592.28;;;-144.67;100.00
47522;BME280;32291;52.010;4.446;2023-09-18T05:30:42;76585.88;;;-144.67;100.00
47522;BME280;32291;52.010;4.446;2023-09-18T05:31:44;76590.16;;;-144.67;100.00
47522;BME280;32291;52.010;4.446;2023-09-18T05:32:48;76590.16;;;-144.67;100.00
47522;BME280;32291;52.010;4.446;2023-09-18T05:33:55;76579.44;;;-144.67;100.00
47522;BME280;32291;52.010;4.446;2023-09-18T05:35:00;76588.00;;;-144.67;100.00
47522;BME280;32291;52.010;4.446;2023-09-18T05:36:06;76583.72;;;-144.67;100.00
47522;BME280;32291;52.010;4.446;2023-09-18T05:37:09;76579.44;;;-144.67;100.00